NCAR-RAP Real-Time Weather Data

Output produced by METARs form (24 April 2018  16:15 UTC)
found at http://weather.rap.ucar.edu/surface/
 
RJOH 241600Z 28006KT 9999 -SHRA FEW005 BKN008 OVC015 13/11 Q1006
RJOH 241500Z 31009KT 9999 -SHRA FEW003 BKN008 OVC015 13/11 Q1006
RJOH 241400Z 32009KT 9999 -SHRA FEW003 BKN008 OVC015 15/14 Q1006
RJOH 241300Z 29005KT 9999 -SHRA FEW003 BKN008 OVC015 15/13 Q1006
RJOH 241200Z 29006KT 9999 -SHRA FEW003 BKN008 OVC015 16/14 Q1005
RJOH 241100Z 24005KT 7000 -SHRA FEW002 SCT003 BKN008 18/16 Q1004
RJOH 241000Z 24003KT 4000 -SHRA BR FEW010 BKN015 OVC030 18/15 Q1004
RJOH 240900Z 24006KT 3500 R25/1800N -SHRA BR FEW010 BKN015 OVC035 18/15 Q1003
RJOH 240800Z 17005KT 6000 -RA FEW010 BKN035 BKN060 18/15 Q1003
RJOH 240700Z VRB02KT 9999 -RA FEW004 BKN060 OVC090 18/15 Q1003
RJOH 240600Z VRB02KT 8000 R25/1300VP1800D -RA FEW004 BKN060 OVC090 18/15 Q1003
RJOH 240500Z 35003KT 300V050 9999 -RA FEW004 BKN060 OVC090 17/15 Q1004
RJOH 240400Z 04005KT 9999 -RA FEW006 BKN060 OVC090 17/15 Q1005
RJOH 240300Z VRB02KT 9999 -RA FEW015 BKN060 OVC090 18/15 Q1006
RJOH 240200Z 17004KT 9999 -RA FEW015 BKN060 OVC090 18/15 Q1008
RJOH 240100Z 22004KT 180V250 9999 -RA FEW005 BKN060 OVC090 17/14 Q1008
RJOH 240000Z 17003KT 140V230 9999 -RA FEW005 BKN060 OVC090 18/14 Q1009
RJOH 232300Z 12003KT 090V160 9999 -RA FEW005 BKN060 OVC090 17/14 Q1009
RJOH 232200Z 14003KT 9999 -RA FEW005 BKN060 OVC090 17/14 Q1009
RJOH 232100Z 13003KT 6000 -RA FEW030 BKN050 BKN090 16/14 Q1010
RJOH 232000Z 07003KT 6000 -RA FEW030 BKN050 OVC090 16/14 Q1010
RJOH 231900Z 07006KT 4000 -RA BR FEW004 BKN050 OVC090 16/14 Q1010
RJOH 231800Z 08009KT 5000 -RA BR FEW003 BKN050 OVC080 16/14 Q1011
RJOH 231700Z 07010KT 5000 -RA BR FEW002 SCT003 OVC060 16/14 Q1012
RJOH 231600Z 08011KT 5000 -RA BR FEW002 SCT003 BKN040 15/13 Q1013
RJOH 231500Z 07012KT 5000 -RA BR FEW003 SCT004 BKN060 16/13 Q1014
RJOH 231400Z 07012KT 5000 -SHRA BR FEW003 BKN004 OVC010 15/13 Q1014
RJOH 231300Z 06012KT 5000 -SHRA BR FEW005 BKN007 OVC010 15/13 Q1015
RJOH 231200Z 06013KT 5000 -SHRA BR FEW005 BKN008 BKN012 15/12 Q1016
RJOH 231100Z 06010KT 4000 -SHRA BR FEW005 BKN008 BKN012 15/12 Q1016
RJOH 231000Z 05010KT 5000 -SHRA BR FEW005 SCT008 BKN010 15/12 Q1016
RJOH 230900Z 05010KT 6000 FEW006 SCT008 BKN015 15/11 Q1016
RJOH 230800Z 05008KT 7000 FEW006 SCT008 BKN015 16/12 Q1015
RJOH 230700Z 04009KT 8000 FEW006 SCT008 BKN015 16/11 Q1015
RJOH 230600Z 04008KT 9000 FEW006 SCT008 BKN015 16/11 Q1016
RJOH 230500Z 05009KT 9000 FEW006 SCT009 BKN015 16/11 Q1017
RJOH 230400Z 05010KT 8000 FEW006 SCT008 BKN015 16/11 Q1017
RJOH 230300Z 05012KT 7000 FEW006 BKN008 BKN015 17/11 Q1018
RJOH 230200Z 05012KT 5000 BR FEW002 SCT004 BKN007 16/12 Q1018
RJOH 230100Z 04011KT 5000 BR FEW002 BKN004 BKN007 15/12 Q1019
RJOH 230000Z 04011KT 2500 -DZ BR FEW001 BKN003 BKN006 15/12 Q1019
RJOH 222300Z 04008KT 3000 -DZ BR FEW001 BKN003 BKN006 15/13 Q1019
RJOH 222200Z 05006KT 4000 -DZ BR SCT003 BKN006 BKN008 16/13 Q1019
RJOH 222100Z 07006KT 4000 BR SCT006 BKN008 16/13 Q1019
RJOH 222000Z 03004KT 6000 FEW006 BKN008 16/13 Q1019
RJOH 221900Z 05002KT 9000 FEW006 BKN008 16/13 Q1018
RJOH 221800Z 01003KT 9000 FEW006 BKN008 16/13 Q1019
RJOH 221700Z 11002KT 9999 FEW006 BKN010 16/13 Q1019
RJOH 221600Z 11003KT 9999 FEW006 BKN010 BKN/// 16/13 Q1019
RJOH 221500Z 07004KT 9999 FEW005 SCT015 BKN180 16/13 Q1019
RJOH 221400Z 07003KT 9999 FEW005 BKN180 BKN/// 16/13 Q1019
RJOH 221300Z 03003KT 9999 FEW003 BKN190 BKN/// 16/13 Q1019
RJOH 221200Z 04004KT 9999 FEW003 BKN190 BKN/// 16/13 Q1019
RJOH 221100Z 08007KT 9999 FEW030 SCT150 BKN190 17/13 Q1019
RJOH 221000Z 10004KT 9999 FEW030 SCT150 BKN190 18/13 Q1018
RJOH 220900Z 35006KT 9999 FEW030 SCT150 BKN220 19/12 Q1018
RJOH 220800Z 33011KT 9999 FEW030 BKN230 21/12 Q1018
RJOH 220700Z 34011KT 9999 FEW050 BKN250 23/10 Q1018
RJOH 220600Z 27011KT 9999 FEW050 BKN250 24/07 Q1018
RJOH 220500Z 27007KT 220V330 9999 FEW060 25/09 Q1018